Time;durP1;ratioP1;P1;durP2;ratioP2;P2;SDS_P1;SDS_P2;PMS_P1;PMS_P2;Temp;Humidity;BMP_temperature;BMP_pressure;BME280_temperature;BME280_humidity;BME280_pressure;Samples;Min_cycle;Max_cycle;Signal;HPM_P1;HPM_P2
2023/09/26 00:00:19;;;;;;;6.10;1.53;;;;;;;18.82;46.88;100230.38;5059460;28;20025;-84
2023/09/26 00:02:45;;;;;;;6.05;1.73;;;;;;;18.75;47.06;100231.56;5052461;28;20037;-84
2023/09/26 00:05:11;;;;;;;5.97;1.40;;;;;;;18.71;47.59;100235.28;5070469;28;20063;-84
2023/09/26 00:07:36;;;;;;;4.90;1.40;;;;;;;18.66;47.59;100238.09;5079805;28;20243;-84
2023/09/26 00:10:04;;;;;;;4.50;1.65;;;;;;;18.61;47.71;100237.41;5091058;28;20561;-83
2023/09/26 00:12:29;;;;;;;5.13;1.83;;;;;;;18.57;47.96;100230.47;5066643;28;20480;-84
2023/09/26 00:14:55;;;;;;;5.60;1.73;;;;;;;18.54;47.87;100243.91;5070452;28;20032;-85
2023/09/26 00:17:20;;;;;;;7.47;2.00;;;;;;;18.50;47.82;100235.16;5070031;28;20020;-84
2023/09/26 00:19:45;;;;;;;6.53;1.80;;;;;;;18.48;48.29;100234.34;5070029;28;20029;-83
2023/09/26 00:22:11;;;;;;;5.33;1.70;;;;;;;18.45;48.24;100235.31;5070120;28;20488;-84
2023/09/26 00:24:36;;;;;;;6.47;1.77;;;;;;;18.42;48.28;100234.56;5052100;28;20263;-84
2023/09/26 00:27:02;;;;;;;8.80;1.70;;;;;;;18.38;48.71;100227.59;5064369;28;20545;-85
2023/09/26 00:29:27;;;;;;;4.60;1.60;;;;;;;18.33;48.59;100233.97;5070217;28;20035;-83
2023/09/26 00:31:53;;;;;;;6.28;1.90;;;;;;;18.28;48.75;100235.97;5069979;28;20891;-83
2023/09/26 00:34:19;;;;;;;4.93;1.53;;;;;;;18.23;48.92;100240.59;5070129;28;20036;-83
2023/09/26 00:36:48;;;;;;;6.97;1.92;;;;;;;18.21;49.17;100242.44;5070090;28;20113;-83
2023/09/26 00:39:13;;;;;;;6.70;1.58;;;;;;;18.19;49.06;100236.28;5069812;28;20033;-83
2023/09/26 00:41:39;;;;;;;6.50;1.97;;;;;;;18.15;49.18;100232.88;5069713;28;20074;-83
2023/09/26 00:44:06;;;;;;;6.93;1.50;;;;;;;18.16;49.08;100236.38;5064274;28;20112;-83
2023/09/26 00:46:33;;;;;;;6.47;1.90;;;;;;;18.11;49.50;100235.69;5049862;28;20029;-83
2023/09/26 00:49:01;;;;;;;5.30;1.75;;;;;;;18.07;49.38;100238.47;5049940;28;20116;-85
2023/09/26 00:51:27;;;;;;;5.90;1.73;;;;;;;18.02;49.70;100243.09;5050109;28;20443;-85
2023/09/26 00:53:54;;;;;;;6.63;1.65;;;;;;;17.99;49.60;100231.63;5049520;28;20036;-83
2023/09/26 00:56:19;;;;;;;4.83;1.47;;;;;;;17.97;49.80;100238.81;5049975;28;20091;-84
2023/09/26 00:58:46;;;;;;;5.53;1.63;;;;;;;17.93;49.76;100230.94;5049724;28;20614;-85
2023/09/26 01:01:12;;;;;;;6.00;1.80;;;;;;;17.90;49.46;100236.38;5067858;28;20071;-85
2023/09/26 01:03:38;;;;;;;5.30;1.65;;;;;;;17.88;50.03;100235.56;5069574;28;20460;-83
2023/09/26 01:06:03;;;;;;;5.55;1.95;;;;;;;17.85;49.88;100230.34;5069705;28;20064;-83
2023/09/26 01:08:30;;;;;;;5.37;1.40;;;;;;;17.85;49.91;100229.47;5056610;28;20053;-83
2023/09/26 01:10:58;;;;;;;5.20;1.70;;;;;;;17.82;50.03;100225.09;5049394;28;20029;-83
2023/09/26 01:13:24;;;;;;;5.85;1.77;;;;;;;17.81;50.25;100227.84;5067403;28;20032;-85
2023/09/26 01:15:49;;;;;;;5.67;1.80;;;;;;;17.76;49.94;100228.88;5069330;28;20028;-86
2023/09/26 01:18:16;;;;;;;6.20;1.93;;;;;;;17.75;50.08;100223.59;5069218;28;20049;-86
2023/09/26 01:20:45;;;;;;;4.65;1.50;;;;;;;17.74;50.18;100220.06;5069908;28;20107;-84
2023/09/26 01:23:12;;;;;;;5.10;1.75;;;;;;;17.73;50.27;100221.00;5069303;28;20043;-85
2023/09/26 01:25:38;;;;;;;6.25;1.90;;;;;;;17.68;50.58;100214.06;5065660;28;20033;-84
2023/09/26 01:28:08;;;;;;;5.35;1.60;;;;;;;17.61;50.53;100211.63;5049391;28;20506;-83
2023/09/26 01:30:38;;;;;;;5.23;1.80;;;;;;;17.58;50.67;100210.84;5049155;28;20084;-83
2023/09/26 01:33:16;;;;;;;5.32;1.88;;;;;;;17.56;50.65;100207.38;5049123;28;20029;-83
2023/09/26 01:35:44;;;;;;;5.30;1.35;;;;;;;17.50;50.78;100204.00;5048961;28;20409;-83
2023/09/26 01:38:10;;;;;;;6.35;1.70;;;;;;;17.48;50.83;100204.97;5049870;28;20257;-83
2023/09/26 01:40:35;;;;;;;5.27;1.70;;;;;;;17.44;50.83;100206.84;5049236;28;20259;-83
2023/09/26 01:43:01;;;;;;;5.47;1.80;;;;;;;17.41;50.95;100209.63;5049437;28;20065;-83
2023/09/26 01:45:27;;;;;;;5.82;2.03;;;;;;;17.39;51.00;100210.63;5066494;28;20043;-84
2023/09/26 01:47:52;;;;;;;5.30;1.63;;;;;;;17.36;51.23;100206.25;5069083;28;20514;-84
2023/09/26 01:50:20;;;;;;;5.97;1.63;;;;;;;17.33;51.47;100206.34;5068918;28;20028;-84
2023/09/26 01:52:46;;;;;;;5.97;1.80;;;;;;;17.28;51.37;100205.66;5069087;28;20499;-85
2023/09/26 01:55:14;;;;;;;4.80;1.40;;;;;;;17.26;51.47;100199.50;5069025;28;20037;-85
2023/09/26 01:57:39;;;;;;;5.50;1.60;;;;;;;17.20;51.55;100196.09;5069073;28;20473;-85
2023/09/26 02:00:14;;;;;;;6.33;1.97;;;;;;;17.16;51.74;100197.13;5060109;28;20033;-83
2023/09/26 02:02:45;;;;;;;5.30;1.98;;;;;;;17.10;51.88;100193.78;5048998;28;20554;-82
2023/09/26 02:05:14;;;;;;;7.90;1.63;;;;;;;17.05;51.89;100199.28;5052334;28;20429;-82
2023/09/26 02:07:39;;;;;;;5.75;1.70;;;;;;;16.97;52.07;100198.59;5072118;28;20035;-82
2023/09/26 02:10:05;;;;;;;5.83;1.73;;;;;;;16.90;52.35;100192.63;5092871;28;20115;-82
2023/09/26 02:12:34;;;;;;;6.43;1.80;;;;;;;16.85;52.11;100195.41;5081862;28;20480;-82
2023/09/26 02:15:01;;;;;;;6.85;1.83;;;;;;;16.83;52.47;100189.28;5072726;28;20037;-82
2023/09/26 02:17:28;;;;;;;5.32;1.92;;;;;;;16.77;52.61;100189.47;5072364;28;20465;-82
2023/09/26 02:19:53;;;;;;;5.20;1.85;;;;;;;16.71;52.48;100197.63;5072295;28;20075;-83
2023/09/26 02:22:19;;;;;;;4.77;1.50;;;;;;;16.66;52.68;100195.13;5072639;28;20060;-82
2023/09/26 02:24:44;;;;;;;5.13;1.67;;;;;;;16.60;53.25;100196.19;5072579;28;20056;-82
2023/09/26 02:27:10;;;;;;;6.50;1.70;;;;;;;16.51;53.09;100204.41;5055722;28;20025;-82
2023/09/26 02:29:35;;;;;;;5.80;1.83;;;;;;;16.44;53.35;100193.13;5052219;28;20108;-82
2023/09/26 02:32:00;;;;;;;6.30;1.90;;;;;;;16.41;53.41;100194.97;5052317;28;20043;-82
2023/09/26 02:34:26;;;;;;;5.23;1.53;;;;;;;16.38;53.46;100198.59;5052409;28;20104;-82
2023/09/26 02:36:51;;;;;;;5.27;1.60;;;;;;;16.38;53.43;100189.75;5034358;28;20091;-82
2023/09/26 02:39:17;;;;;;;6.65;1.67;;;;;;;16.39;53.55;100199.47;5034481;28;20033;-82
2023/09/26 02:41:43;;;;;;;5.20;1.87;;;;;;;16.38;53.43;100197.72;5034173;28;20138;-84
2023/09/26 02:44:08;;;;;;;6.38;2.08;;;;;;;16.34;53.54;100200.47;5058277;28;20036;-84
2023/09/26 02:46:33;;;;;;;6.10;1.83;;;;;;;16.31;53.71;100200.56;5072363;28;20481;-84
2023/09/26 02:49:03;;;;;;;7.27;1.90;;;;;;;16.31;53.61;100199.69;5071964;28;20086;-83
2023/09/26 02:51:28;;;;;;;6.28;1.70;;;;;;;16.25;54.15;100205.19;5072109;28;20369;-84
2023/09/26 02:53:54;;;;;;;4.80;1.73;;;;;;;16.19;54.38;100198.25;5072119;28;20035;-84
2023/09/26 02:56:19;;;;;;;6.35;1.90;;;;;;;16.10;54.47;100193.22;5072047;28;20366;-83
2023/09/26 02:58:45;;;;;;;5.87;1.97;;;;;;;16.05;54.67;100194.22;5072017;28;20198;-82
2023/09/26 03:01:17;;;;;;;6.17;2.37;;;;;;;16.01;54.71;100192.53;5057003;28;20033;-82
2023/09/26 03:03:42;;;;;;;6.75;1.77;;;;;;;15.96;54.50;100189.16;5051630;28;20036;-82
2023/09/26 03:06:08;;;;;;;6.03;1.80;;;;;;;15.93;54.63;100186.56;5051661;28;20037;-82
2023/09/26 03:08:34;;;;;;;6.00;1.70;;;;;;;15.91;54.70;100191.06;5086614;28;20060;-82
2023/09/26 03:11:00;;;;;;;6.00;1.77;;;;;;;15.91;54.63;100184.00;5092071;28;20285;-82
2023/09/26 03:13:27;;;;;;;6.65;1.80;;;;;;;15.88;55.01;100185.81;5073119;28;20457;-85
2023/09/26 03:15:55;;;;;;;5.00;1.67;;;;;;;15.81;55.02;100189.56;5072074;28;20142;-83
2023/09/26 03:18:21;;;;;;;6.25;1.92;;;;;;;15.77;54.99;100184.28;5071387;28;20029;-82
2023/09/26 03:20:46;;;;;;;5.07;1.90;;;;;;;15.76;55.01;100182.56;5071205;28;20056;-82
2023/09/26 03:23:13;;;;;;;5.88;1.60;;;;;;;15.78;55.00;100179.88;5071229;28;20048;-82
2023/09/26 03:25:38;;;;;;;6.23;1.90;;;;;;;15.75;54.99;100188.78;5067371;28;20512;-82
2023/09/26 03:28:04;;;;;;;7.18;1.80;;;;;;;15.75;55.24;100185.28;5051396;28;20064;-82
2023/09/26 03:30:30;;;;;;;6.43;1.90;;;;;;;15.75;55.33;100190.59;5053114;28;20114;-81
2023/09/26 03:32:56;;;;;;;5.50;2.00;;;;;;;15.75;55.44;100187.94;5051405;28;20128;-83
2023/09/26 03:35:21;;;;;;;6.65;1.88;;;;;;;15.73;55.58;100187.09;5051244;28;20484;-84
2023/09/26 03:37:47;;;;;;;5.97;1.90;;;;;;;15.68;56.03;100187.22;5051076;28;20100;-85
2023/09/26 03:40:12;;;;;;;6.13;2.10;;;;;;;15.59;56.15;100190.97;5051091;28;20087;-84
2023/09/26 03:42:38;;;;;;;4.90;1.60;;;;;;;15.56;56.27;100198.16;5050874;28;20468;-85
2023/09/26 03:45:05;;;;;;;6.83;1.83;;;;;;;15.57;56.25;100197.25;5064741;28;20024;-82
2023/09/26 03:47:30;;;;;;;4.95;1.42;;;;;;;15.54;56.33;100192.00;5070455;28;20427;-82
2023/09/26 03:49:56;;;;;;;4.70;1.50;;;;;;;15.54;56.18;100194.66;5070945;28;20032;-85
2023/09/26 03:52:21;;;;;;;5.43;1.77;;;;;;;15.54;56.15;100194.66;5070906;28;20028;-85
2023/09/26 03:54:46;;;;;;;6.63;1.80;;;;;;;15.52;56.35;100188.50;5070833;28;20742;-85
2023/09/26 03:57:12;;;;;;;4.77;1.57;;;;;;;15.50;56.21;100188.56;5060260;28;20051;-84
2023/09/26 03:59:37;;;;;;;8.57;2.03;;;;;;;15.49;56.24;100189.50;5037778;28;20036;-84
2023/09/26 04:02:03;;;;;;;4.67;1.50;;;;;;;15.48;56.12;100185.94;5070576;28;20033;-85
2023/09/26 04:04:29;;;;;;;5.17;1.80;;;;;;;15.42;56.50;100194.06;5070797;28;20027;-84
2023/09/26 04:06:54;;;;;;;6.87;1.40;;;;;;;15.36;56.61;100180.97;5074108;28;20285;-84
2023/09/26 04:09:20;;;;;;;4.97;1.40;;;;;;;15.32;56.53;100187.28;5090720;28;20475;-83
2023/09/26 04:11:48;;;;;;;5.70;1.87;;;;;;;15.27;56.51;100192.69;5076460;28;20263;-82
2023/09/26 04:14:13;;;;;;;7.25;1.90;;;;;;;15.25;56.96;100201.56;5050313;28;20444;-82
2023/09/26 04:16:38;;;;;;;5.93;1.67;;;;;;;15.24;56.85;100200.72;5050658;28;20029;-82
2023/09/26 04:19:04;;;;;;;5.53;1.80;;;;;;;15.24;56.67;100199.81;5050329;28;20404;-81
2023/09/26 04:21:29;;;;;;;6.03;1.70;;;;;;;15.23;56.92;100204.28;5050166;28;20477;-83
2023/09/26 04:23:55;;;;;;;5.30;1.73;;;;;;;15.24;56.89;100200.72;5050119;28;20029;-84
2023/09/26 04:26:21;;;;;;;5.93;2.20;;;;;;;15.24;56.89;100202.47;5038398;28;20639;-84
2023/09/26 04:28:46;;;;;;;6.07;1.90;;;;;;;15.23;56.75;100198.09;5049776;28;20096;-84
2023/09/26 04:31:13;;;;;;;5.32;2.03;;;;;;;15.20;57.03;100197.25;5039532;28;20080;-83
2023/09/26 04:33:39;;;;;;;6.13;2.03;;;;;;;15.18;56.94;100195.53;5070045;28;20031;-84
2023/09/26 04:36:04;;;;;;;5.90;1.98;;;;;;;15.11;57.22;100189.53;5070356;28;20029;-82
2023/09/26 04:38:30;;;;;;;7.17;2.10;;;;;;;15.03;57.45;100186.16;5068648;28;20412;-82
2023/09/26 04:40:55;;;;;;;6.97;1.97;;;;;;;15.00;57.68;100186.25;5068599;28;20063;-86
2023/09/26 04:43:20;;;;;;;5.55;1.85;;;;;;;14.97;57.56;100187.22;5085409;28;20191;-84
2023/09/26 04:45:46;;;;;;;5.93;1.70;;;;;;;14.96;57.24;100189.88;5089896;28;20073;-82
2023/09/26 04:48:11;;;;;;;7.03;1.97;;;;;;;14.93;57.74;100189.06;5090209;28;20028;-82
2023/09/26 04:50:37;;;;;;;5.40;1.97;;;;;;;14.92;57.48;100184.66;5090197;28;20028;-82
2023/09/26 04:53:03;;;;;;;6.70;2.10;;;;;;;14.90;57.75;100189.13;5082329;28;20033;-82
2023/09/26 04:55:28;;;;;;;4.60;1.60;;;;;;;14.89;57.87;100189.16;5068179;28;20078;-81
2023/09/26 04:57:54;;;;;;;6.35;1.90;;;;;;;14.86;57.94;100184.81;5069705;28;20055;-83
2023/09/26 05:00:19;;;;;;;5.67;1.77;;;;;;;14.80;58.02;100190.22;5080909;28;20035;-82
2023/09/26 05:02:51;;;;;;;6.53;1.70;;;;;;;14.77;58.45;100187.66;5089916;28;20192;-81
2023/09/26 05:05:17;;;;;;;6.30;2.22;;;;;;;14.77;58.16;100185.00;5090243;28;20024;-81
2023/09/26 05:07:44;;;;;;;6.10;2.13;;;;;;;14.77;58.40;100185.88;5090236;28;20071;-83
2023/09/26 05:10:11;;;;;;;7.13;2.33;;;;;;;14.77;58.28;100185.00;5069747;28;20033;-86
2023/09/26 05:12:40;;;;;;;5.40;1.60;;;;;;;14.77;58.19;100185.00;5069656;28;20113;-81
2023/09/26 05:15:13;;;;;;;6.45;1.63;;;;;;;14.77;58.23;100191.19;5068198;28;20021;-84
2023/09/26 05:17:51;;;;;;;7.13;1.98;;;;;;;14.78;58.30;100192.03;5069468;28;20030;-84
2023/09/26 05:20:18;;;;;;;7.82;1.80;;;;;;;14.77;58.20;100198.25;5069605;28;20487;-85
2023/09/26 05:22:46;;;;;;;6.28;1.92;;;;;;;14.74;58.11;100185.06;5069409;28;20044;-85
2023/09/26 05:25:11;;;;;;;8.33;2.17;;;;;;;14.72;58.37;100192.19;5069463;28;20029;-84
2023/09/26 05:27:38;;;;;;;5.60;1.80;;;;;;;14.70;58.47;100196.63;5069182;28;20029;-82
2023/09/26 05:30:05;;;;;;;7.85;2.10;;;;;;;14.69;58.49;100192.22;5069460;28;20429;-82
2023/09/26 05:32:31;;;;;;;5.28;1.73;;;;;;;14.65;58.56;100196.72;5052559;28;20062;-82
2023/09/26 05:34:56;;;;;;;5.57;1.60;;;;;;;14.60;58.46;100199.50;5048804;28;20036;-81
2023/09/26 05:37:22;;;;;;;5.27;1.53;;;;;;;14.58;58.63;100201.28;5047951;28;20055;-82
2023/09/26 05:39:48;;;;;;;5.43;1.80;;;;;;;14.55;59.00;100204.00;5048718;28;20025;-81
2023/09/26 05:42:13;;;;;;;8.70;1.87;;;;;;;14.49;59.00;100206.78;5052461;28;20299;-81
2023/09/26 05:44:39;;;;;;;7.53;2.47;;;;;;;14.46;59.06;100206.84;5063745;28;20020;-83
2023/09/26 05:47:04;;;;;;;6.37;1.70;;;;;;;14.43;59.23;100206.91;5073160;28;20269;-83
2023/09/26 05:49:30;;;;;;;6.63;1.70;;;;;;;14.45;58.92;100202.47;5063842;28;20025;-83
2023/09/26 05:51:55;;;;;;;6.07;1.75;;;;;;;14.45;59.04;100202.47;5053426;28;20020;-85
2023/09/26 05:54:21;;;;;;;8.23;1.80;;;;;;;14.43;59.33;100201.63;5055405;28;20112;-83
2023/09/26 05:56:46;;;;;;;7.50;2.50;;;;;;;14.43;59.29;100201.63;5053626;28;20029;-85
2023/09/26 05:59:12;;;;;;;9.17;2.10;;;;;;;14.45;58.97;100205.09;5061133;28;20025;-79
2023/09/26 06:01:37;;;;;;;6.18;2.33;;;;;;;14.46;59.08;100201.56;5074447;28;20040;-80
2023/09/26 06:04:03;;;;;;;6.93;2.40;;;;;;;14.45;58.96;100210.41;5072873;28;20020;-87
2023/09/26 06:06:29;;;;;;;7.60;1.93;;;;;;;14.44;59.10;100208.66;5072386;28;20024;-82
2023/09/26 06:08:54;;;;;;;8.45;1.90;;;;;;;14.47;59.02;100214.78;5069196;28;20021;-82
2023/09/26 06:11:20;;;;;;;7.33;2.60;;;;;;;14.53;58.83;100218.19;5071697;28;20024;-84
2023/09/26 06:13:46;;;;;;;7.87;2.10;;;;;;;14.58;58.85;100217.19;5055652;28;20028;-83
2023/09/26 06:16:12;;;;;;;5.37;1.93;;;;;;;14.62;58.79;100213.56;5063543;28;20268;-87
2023/09/26 06:18:38;;;;;;;6.97;2.13;;;;;;;14.64;59.07;100222.38;5055864;28;20030;-82
2023/09/26 06:21:04;;;;;;;9.27;2.10;;;;;;;14.71;58.65;100216.97;5052824;28;20033;-88
2023/09/26 06:23:32;;;;;;;9.50;2.40;;;;;;;15.00;58.20;100218.06;5035179;28;20082;-83
2023/09/26 06:25:58;;;;;;;8.15;2.13;;;;;;;15.33;57.65;100213.75;5036164;28;20029;-84
2023/09/26 06:28:24;;;;;;;8.77;2.30;;;;;;;15.71;56.53;100215.47;5055631;28;20481;-86
2023/09/26 06:30:50;;;;;;;7.00;2.10;;;;;;;15.98;56.34;100207.72;5054136;28;20110;-87
2023/09/26 06:33:16;;;;;;;10.07;2.30;;;;;;;15.97;56.49;100217.44;5054536;28;20066;-85
2023/09/26 06:35:41;;;;;;;8.68;2.40;;;;;;;15.90;56.66;100219.38;5053980;28;20484;-82
2023/09/26 06:38:06;;;;;;;10.43;2.00;;;;;;;15.83;57.09;100222.25;5057489;28;20036;-82
2023/09/26 06:40:32;;;;;;;13.60;2.30;;;;;;;15.77;57.24;100226.78;5070899;28;20060;-89
2023/09/26 06:43:00;;;;;;;12.03;2.40;;;;;;;15.83;57.31;100227.56;5072417;28;20032;-87
2023/09/26 06:45:29;;;;;;;10.53;2.10;;;;;;;16.02;57.33;100233.25;5058750;28;20408;-82
2023/09/26 06:47:55;;;;;;;8.18;2.03;;;;;;;16.29;57.52;100236.94;5051242;28;20025;-82
2023/09/26 06:50:21;;;;;;;7.38;1.80;;;;;;;16.59;57.26;100242.28;5051644;28;20116;-88
2023/09/26 06:52:47;;;;;;;8.32;1.85;;;;;;;16.91;56.71;100236.94;5053178;28;20044;-89
2023/09/26 06:55:13;;;;;;;5.53;1.90;;;;;;;17.15;57.50;100245.94;5051120;28;20165;-88
2023/09/26 06:57:39;;;;;;;6.57;1.92;;;;;;;17.34;57.52;100250.69;5050501;28;20184;-89
2023/09/26 07:00:05;;;;;;;5.77;1.70;;;;;;;17.52;57.19;100254.53;5061260;28;20048;-87
2023/09/26 07:02:31;;;;;;;5.45;1.70;;;;;;;17.70;57.05;100246.84;5073031;28;20035;-90
2023/09/26 07:04:57;;;;;;;6.97;2.05;;;;;;;17.84;57.58;100254.34;5056784;28;20029;-90
2023/09/26 07:07:23;;;;;;;8.93;1.90;;;;;;;17.99;57.04;100253.84;5077594;28;20024;-89
2023/09/26 07:09:48;;;;;;;6.90;1.90;;;;;;;18.15;57.12;100253.31;5090966;28;20111;-90
2023/09/26 07:12:14;;;;;;;4.97;1.70;;;;;;;18.29;56.69;100252.81;5083467;28;20033;-88
2023/09/26 07:14:40;;;;;;;5.13;1.60;;;;;;;18.40;56.76;100250.63;5072294;28;20342;-87
2023/09/26 07:17:07;;;;;;;5.97;1.98;;;;;;;18.50;57.21;100252.00;5071991;28;20035;-86
2023/09/26 07:19:33;;;;;;;5.30;1.93;;;;;;;18.63;57.43;100252.41;5071574;28;20037;-87
2023/09/26 07:21:59;;;;;;;7.00;1.75;;;;;;;18.77;56.86;100254.56;5071440;28;20025;-83
2023/09/26 07:24:25;;;;;;;5.03;1.53;;;;;;;18.90;57.02;100257.63;5071565;28;20036;-82
2023/09/26 07:26:51;;;;;;;8.25;2.00;;;;;;;19.00;57.06;100260.84;5058174;28;20021;-89
2023/09/26 07:29:16;;;;;;;5.53;1.70;;;;;;;19.12;56.49;100262.16;5055161;28;20105;-90
2023/09/26 07:31:42;;;;;;;7.13;2.00;;;;;;;19.24;56.95;100255.44;5051626;28;20044;-89
2023/09/26 07:34:07;;;;;;;5.93;1.30;;;;;;;19.37;56.59;100250.47;5052236;28;20079;-91
2023/09/26 07:36:34;;;;;;;6.83;1.80;;;;;;;19.53;56.79;100252.53;5053939;28;20094;-88
2023/09/26 07:38:59;;;;;;;7.47;1.60;;;;;;;19.65;56.45;100258.22;5052614;28;20055;-89
2023/09/26 07:41:25;;;;;;;8.83;2.10;;;;;;;19.83;56.21;100257.50;5054995;28;20025;-82
2023/09/26 07:43:50;;;;;;;9.55;2.00;;;;;;;19.98;56.30;100256.88;5055152;28;20082;-82
2023/09/26 07:46:15;;;;;;;5.37;1.73;;;;;;;20.12;56.35;100260.72;5071011;28;20115;-83
2023/09/26 07:48:42;;;;;;;5.13;1.30;;;;;;;20.21;56.41;100261.19;5070766;28;20020;-83
2023/09/26 07:51:09;;;;;;;6.18;1.45;;;;;;;20.32;56.61;100255.38;5071152;28;20032;-90
2023/09/26 07:53:35;;;;;;;7.57;1.70;;;;;;;20.43;56.22;100262.06;5072246;28;20055;-89
2023/09/26 07:56:01;;;;;;;5.70;1.90;;;;;;;20.58;56.25;100258.66;5072517;28;20029;-86
2023/09/26 07:58:26;;;;;;;5.03;1.60;;;;;;;20.65;56.05;100252.09;5071243;28;20506;-90
2023/09/26 08:00:58;;;;;;;4.87;1.60;;;;;;;20.80;55.13;100257.69;5071513;28;20024;-89
2023/09/26 08:03:24;;;;;;;5.47;1.60;;;;;;;20.93;54.71;100244.59;5069877;28;20031;-87
2023/09/26 08:05:49;;;;;;;5.03;1.60;;;;;;;21.02;54.31;100256.69;5070961;28;20032;-87
2023/09/26 08:08:15;;;;;;;5.77;1.70;;;;;;;21.08;53.69;100251.03;5085752;28;20020;-89
2023/09/26 08:10:41;;;;;;;5.47;1.50;;;;;;;21.20;53.03;100250.44;5092071;28;20032;-87
2023/09/26 08:13:06;;;;;;;4.73;1.60;;;;;;;21.18;52.63;100259.47;5076199;28;20063;-83
2023/09/26 08:15:34;;;;;;;6.03;1.70;;;;;;;21.22;52.22;100251.22;5070467;28;20047;-82
2023/09/26 08:18:02;;;;;;;5.15;1.80;;;;;;;21.37;51.12;100264.81;5071602;28;20560;-86
2023/09/26 08:20:28;;;;;;;5.27;1.50;;;;;;;21.40;51.27;100251.28;5072498;28;20031;-86
2023/09/26 08:22:53;;;;;;;5.28;1.38;;;;;;;21.52;51.11;100252.47;5071751;28;20025;-87
2023/09/26 08:25:19;;;;;;;5.87;1.67;;;;;;;21.62;51.24;100260.91;5069354;28;20016;-85
2023/09/26 08:27:44;;;;;;;7.87;1.43;;;;;;;21.74;50.91;100252.28;5050987;28;20025;-83
2023/09/26 08:30:13;;;;;;;5.03;1.60;;;;;;;21.88;50.96;100253.38;5050461;28;20168;-84
2023/09/26 08:32:42;;;;;;;5.65;1.27;;;;;;;21.94;50.62;100253.06;5050001;28;20052;-88
2023/09/26 08:35:08;;;;;;;7.13;1.70;;;;;;;22.01;49.52;100251.78;5051706;28;20544;-88
2023/09/26 08:37:34;;;;;;;4.45;1.40;;;;;;;22.16;49.09;100251.94;5053689;28;20048;-84
2023/09/26 08:40:00;;;;;;;6.57;1.57;;;;;;;22.29;49.20;100257.53;5049885;28;20029;-83
2023/09/26 08:42:27;;;;;;;4.90;1.50;;;;;;;22.39;48.63;100250.69;5049883;28;20040;-84
2023/09/26 08:44:58;;;;;;;4.28;1.42;;;;;;;22.52;47.92;100256.31;5065939;28;20077;-90
2023/09/26 08:47:24;;;;;;;4.90;1.47;;;;;;;22.64;48.22;100252.97;5071099;28;20036;-88
2023/09/26 08:49:54;;;;;;;4.60;1.38;;;;;;;22.68;48.14;100255.47;5070135;28;20031;-84
2023/09/26 08:52:21;;;;;;;4.10;1.40;;;;;;;22.72;47.56;100246.28;5069760;28;20021;-84
2023/09/26 08:54:46;;;;;;;6.13;1.65;;;;;;;22.80;47.18;100252.13;5051799;28;20108;-83
2023/09/26 08:57:12;;;;;;;7.57;1.77;;;;;;;22.89;47.22;100251.59;5069738;28;20086;-83
2023/09/26 08:59:39;;;;;;;5.07;1.58;;;;;;;22.96;46.88;100259.31;5046081;28;20032;-82
2023/09/26 09:02:05;;;;;;;4.65;1.27;;;;;;;23.13;46.60;100264.59;5049466;28;20041;-82
2023/09/26 09:04:30;;;;;;;5.73;1.50;;;;;;;23.26;46.51;100261.22;5050605;28;20388;-88
2023/09/26 09:07:03;;;;;;;6.25;1.60;;;;;;;23.36;46.02;100249.00;5061137;28;20028;-87
2023/09/26 09:09:30;;;;;;;5.47;1.20;;;;;;;23.58;45.68;100253.97;5095272;28;20028;-90
2023/09/26 09:11:55;;;;;;;5.65;1.70;;;;;;;23.68;45.72;100250.75;5090563;28;20032;-90
2023/09/26 09:14:33;;;;;;;5.33;1.53;;;;;;;23.68;45.64;100254.31;5090303;28;20043;-89
2023/09/26 09:16:59;;;;;;;5.25;1.80;;;;;;;23.80;45.96;100242.84;5090131;28;20054;-89
2023/09/26 09:19:52;;;;;;;4.93;1.23;;;;;;;23.93;45.31;100252.81;5091459;28;20038;-90
2023/09/26 09:22:20;;;;;;;4.85;1.30;;;;;;;24.19;45.11;100247.72;5091809;28;20046;-87
2023/09/26 09:24:56;;;;;;;4.68;1.70;;;;;;;24.27;44.49;100258.88;5090450;28;20228;-91
2023/09/26 09:27:38;;;;;;;5.60;1.52;;;;;;;24.43;44.04;100250.72;5073642;28;20517;-88
2023/09/26 09:30:07;;;;;;;5.68;1.52;;;;;;;24.62;44.06;100254.94;5072315;28;20024;-84
2023/09/26 09:32:33;;;;;;;5.10;1.40;;;;;;;24.73;44.26;100248.88;5069143;28;20098;-85
2023/09/26 09:34:59;;;;;;;5.80;1.30;;;;;;;24.82;43.96;100250.13;5059784;28;20675;-90
2023/09/26 09:37:24;;;;;;;4.57;1.65;;;;;;;24.98;43.74;100250.88;5053441;28;20322;-89
2023/09/26 09:39:50;;;;;;;6.03;1.33;;;;;;;25.03;43.43;100251.44;5049925;28;20178;-90
2023/09/26 09:42:15;;;;;;;4.40;1.47;;;;;;;25.20;42.95;100250.34;5049846;28;20033;-91
2023/09/26 09:44:40;;;;;;;5.83;1.60;;;;;;;25.28;42.67;100249.81;5060234;28;20369;-91
2023/09/26 09:47:10;;;;;;;5.65;1.50;;;;;;;25.39;42.86;100251.81;5069956;28;20060;-91
2023/09/26 09:49:43;;;;;;;5.27;1.40;;;;;;;25.50;42.58;100249.28;5069783;28;20024;-91
2023/09/26 09:52:10;;;;;;;5.45;1.63;;;;;;;25.64;42.20;100252.88;5070152;28;20420;-89
2023/09/26 09:54:43;;;;;;;4.85;1.35;;;;;;;25.61;41.51;100255.78;5070519;28;20040;-92
2023/09/26 09:57:12;;;;;;;4.88;1.45;;;;;;;25.77;41.96;100256.47;5071322;28;20025;-85
2023/09/26 09:59:38;;;;;;;3.90;1.35;;;;;;;25.95;41.35;100248.09;5066545;28;20147;-89
2023/09/26 10:02:05;;;;;;;6.93;1.50;;;;;;;26.05;41.31;100251.03;5048942;28;20033;-83
2023/09/26 10:04:32;;;;;;;4.82;1.50;;;;;;;26.25;41.01;100259.56;5049103;28;20423;-84
2023/09/26 10:06:59;;;;;;;5.20;1.20;;;;;;;26.30;40.81;100250.19;5057243;28;20028;-90
2023/09/26 10:09:25;;;;;;;5.60;1.70;;;;;;;26.46;40.67;100243.72;5071209;28;20027;-87
2023/09/26 10:11:55;;;;;;;5.47;1.63;;;;;;;26.55;39.97;100243.03;5084433;28;20112;-88
2023/09/26 10:14:23;;;;;;;5.85;1.70;;;;;;;26.56;39.40;100243.91;5072792;28;20027;-88
2023/09/26 10:16:49;;;;;;;4.50;1.80;;;;;;;26.68;39.30;100242.16;5069569;28;20052;-83
2023/09/26 10:19:16;;;;;;;4.60;1.50;;;;;;;26.70;39.84;100242.91;5069187;28;20024;-80
2023/09/26 10:21:41;;;;;;;5.47;1.60;;;;;;;26.79;40.04;100250.34;5071897;28;20055;-89
2023/09/26 10:24:12;;;;;;;4.97;1.45;;;;;;;26.89;40.02;100242.44;5072226;28;20434;-88
2023/09/26 10:26:49;;;;;;;4.57;1.50;;;;;;;26.88;39.78;100244.28;5058331;28;20642;-90
2023/09/26 10:29:22;;;;;;;6.37;1.80;;;;;;;27.05;39.85;100245.75;5056514;28;20060;-89
2023/09/26 10:31:55;;;;;;;4.82;1.52;;;;;;;27.26;39.37;100239.75;5053834;28;20076;-88
2023/09/26 10:34:28;;;;;;;4.47;1.45;;;;;;;27.53;38.59;100238.66;5053100;28;20482;-90
2023/09/26 10:36:55;;;;;;;6.20;1.50;;;;;;;27.68;38.82;100233.91;5055722;28;20044;-88
2023/09/26 10:39:33;;;;;;;5.20;1.38;;;;;;;27.60;37.98;100233.63;5054170;28;20388;-89
2023/09/26 10:42:09;;;;;;;4.67;1.60;;;;;;;27.63;38.44;100233.41;5034957;28;20536;-88
2023/09/26 10:44:35;;;;;;;7.82;1.45;;;;;;;27.79;38.17;100233.94;5064651;28;20017;-89
2023/09/26 10:47:04;;;;;;;4.78;1.60;;;;;;;28.00;38.42;100229.69;5077764;28;20443;-89
2023/09/26 10:49:32;;;;;;;4.40;1.60;;;;;;;28.16;38.15;100230.22;5074156;28;20025;-90
2023/09/26 10:52:01;;;;;;;6.05;1.67;;;;;;;28.21;37.43;100228.03;5072670;28;20032;-89
2023/09/26 10:54:27;;;;;;;4.40;1.57;;;;;;;28.38;37.52;100217.69;5072496;28;20140;-88
2023/09/26 10:56:53;;;;;;;4.72;1.60;;;;;;;28.52;37.36;100230.09;5073343;28;20380;-89
2023/09/26 10:59:19;;;;;;;4.22;1.58;;;;;;;28.69;36.51;100219.75;5073215;28;20028;-91
2023/09/26 11:01:47;;;;;;;4.80;1.60;;;;;;;28.75;37.08;100219.25;5052415;28;20033;-89
2023/09/26 11:04:12;;;;;;;6.50;1.70;;;;;;;28.78;36.88;100219.88;5039142;28;20116;-86
2023/09/26 11:06:39;;;;;;;5.57;1.50;;;;;;;29.08;36.70;100220.22;5049540;28;20040;-89
2023/09/26 11:09:04;;;;;;;5.35;1.70;;;;;;;29.08;36.41;100229.19;5096379;28;20385;-91
2023/09/26 11:11:30;;;;;;;5.53;1.60;;;;;;;29.15;36.43;100226.84;5092850;28;20124;-91
2023/09/26 11:13:55;;;;;;;4.50;1.80;;;;;;;29.29;36.23;100222.09;5074969;28;20038;-91
2023/09/26 11:16:22;;;;;;;6.15;1.60;;;;;;;29.44;35.84;100222.72;5054769;28;20025;-92
2023/09/26 11:18:54;;;;;;;5.18;1.60;;;;;;;29.43;35.39;100224.53;5072210;28;20409;-91
2023/09/26 11:21:20;;;;;;;4.37;1.60;;;;;;;29.48;35.74;100216.88;5078209;28;20035;-89